sensor_id;sensor_type;location;lat;lon;timestamp;P1;durP1;ratioP1;P2;durP2;ratioP2
71104;SDS011;58760;48.716;8.962;2023-03-16T00:01:13;11.13;;;6.00;;
71104;SDS011;58760;48.716;8.962;2023-03-16T00:03:38;11.60;;;5.93;;
71104;SDS011;58760;48.716;8.962;2023-03-16T00:06:16;11.52;;;5.88;;
71104;SDS011;58760;48.716;8.962;2023-03-16T00:08:41;10.43;;;5.85;;
71104;SDS011;58760;48.716;8.962;2023-03-16T00:11:07;13.07;;;6.25;;
71104;SDS011;58760;48.716;8.962;2023-03-16T00:13:32;11.23;;;6.60;;
71104;SDS011;58760;48.716;8.962;2023-03-16T00:15:59;12.77;;;6.03;;
71104;SDS011;58760;48.716;8.962;2023-03-16T00:18:27;12.30;;;6.18;;
71104;SDS011;58760;48.716;8.962;2023-03-16T00:20:56;11.35;;;5.65;;
71104;SDS011;58760;48.716;8.962;2023-03-16T00:23:24;13.90;;;6.13;;
71104;SDS011;58760;48.716;8.962;2023-03-16T00:25:54;13.23;;;7.07;;
71104;SDS011;58760;48.716;8.962;2023-03-16T00:28:23;12.65;;;6.53;;
71104;SDS011;58760;48.716;8.962;2023-03-16T00:30:50;11.30;;;6.35;;
71104;SDS011;58760;48.716;8.962;2023-03-16T00:33:16;12.20;;;6.35;;
71104;SDS011;58760;48.716;8.962;2023-03-16T00:35:44;10.75;;;6.07;;
71104;SDS011;58760;48.716;8.962;2023-03-16T00:38:14;12.00;;;6.30;;
71104;SDS011;58760;48.716;8.962;2023-03-16T00:40:40;11.25;;;5.85;;
71104;SDS011;58760;48.716;8.962;2023-03-16T00:43:06;9.57;;;5.43;;
71104;SDS011;58760;48.716;8.962;2023-03-16T00:45:31;10.35;;;6.03;;
71104;SDS011;58760;48.716;8.962;2023-03-16T00:47:57;10.00;;;5.78;;
71104;SDS011;58760;48.716;8.962;2023-03-16T00:50:22;10.65;;;5.75;;
71104;SDS011;58760;48.716;8.962;2023-03-16T00:52:47;12.60;;;5.88;;
71104;SDS011;58760;48.716;8.962;2023-03-16T00:55:13;9.98;;;5.75;;
71104;SDS011;58760;48.716;8.962;2023-03-16T00:57:38;11.13;;;5.75;;
71104;SDS011;58760;48.716;8.962;2023-03-16T01:00:04;10.55;;;5.93;;
71104;SDS011;58760;48.716;8.962;2023-03-16T01:02:40;10.15;;;6.05;;
71104;SDS011;58760;48.716;8.962;2023-03-16T01:05:07;12.35;;;6.00;;
71104;SDS011;58760;48.716;8.962;2023-03-16T01:07:33;12.43;;;5.95;;
71104;SDS011;58760;48.716;8.962;2023-03-16T01:10:00;12.23;;;5.78;;
71104;SDS011;58760;48.716;8.962;2023-03-16T01:12:26;10.90;;;5.75;;
71104;SDS011;58760;48.716;8.962;2023-03-16T01:14:51;9.75;;;5.03;;
71104;SDS011;58760;48.716;8.962;2023-03-16T01:17:17;10.23;;;5.80;;
71104;SDS011;58760;48.716;8.962;2023-03-16T01:19:43;11.00;;;5.28;;
71104;SDS011;58760;48.716;8.962;2023-03-16T01:22:10;11.73;;;5.60;;
71104;SDS011;58760;48.716;8.962;2023-03-16T01:24:36;10.75;;;5.85;;
71104;SDS011;58760;48.716;8.962;2023-03-16T01:27:03;11.25;;;5.95;;
71104;SDS011;58760;48.716;8.962;2023-03-16T01:29:29;9.43;;;5.47;;
71104;SDS011;58760;48.716;8.962;2023-03-16T01:31:55;12.25;;;6.13;;
71104;SDS011;58760;48.716;8.962;2023-03-16T01:34:21;10.25;;;5.28;;
71104;SDS011;58760;48.716;8.962;2023-03-16T01:36:47;10.80;;;5.28;;
71104;SDS011;58760;48.716;8.962;2023-03-16T01:39:14;8.77;;;5.20;;
71104;SDS011;58760;48.716;8.962;2023-03-16T01:41:40;9.02;;;4.95;;
71104;SDS011;58760;48.716;8.962;2023-03-16T01:46:40;9.07;;;5.30;;
71104;SDS011;58760;48.716;8.962;2023-03-16T01:49:16;8.32;;;4.97;;
71104;SDS011;58760;48.716;8.962;2023-03-16T01:51:51;9.13;;;4.90;;
71104;SDS011;58760;48.716;8.962;2023-03-16T01:54:22;10.52;;;4.95;;
71104;SDS011;58760;48.716;8.962;2023-03-16T01:56:57;10.65;;;5.30;;
71104;SDS011;58760;48.716;8.962;2023-03-16T01:59:24;11.27;;;5.05;;
71104;SDS011;58760;48.716;8.962;2023-03-16T02:01:55;9.02;;;5.18;;
71104;SDS011;58760;48.716;8.962;2023-03-16T02:04:39;8.98;;;4.93;;
71104;SDS011;58760;48.716;8.962;2023-03-16T02:07:08;10.52;;;5.47;;
71104;SDS011;58760;48.716;8.962;2023-03-16T02:09:36;9.32;;;4.85;;
71104;SDS011;58760;48.716;8.962;2023-03-16T02:12:06;8.90;;;5.05;;
71104;SDS011;58760;48.716;8.962;2023-03-16T02:14:32;10.15;;;5.45;;
71104;SDS011;58760;48.716;8.962;2023-03-16T02:16:57;10.73;;;5.50;;
71104;SDS011;58760;48.716;8.962;2023-03-16T02:22:29;11.40;;;5.70;;
71104;SDS011;58760;48.716;8.962;2023-03-16T02:24:59;12.65;;;6.00;;
71104;SDS011;58760;48.716;8.962;2023-03-16T02:27:30;10.60;;;5.70;;
71104;SDS011;58760;48.716;8.962;2023-03-16T02:30:12;9.73;;;5.07;;
71104;SDS011;58760;48.716;8.962;2023-03-16T02:32:39;9.77;;;5.22;;
71104;SDS011;58760;48.716;8.962;2023-03-16T02:35:06;10.05;;;5.57;;
71104;SDS011;58760;48.716;8.962;2023-03-16T02:37:33;9.35;;;5.30;;
71104;SDS011;58760;48.716;8.962;2023-03-16T02:40:00;9.98;;;5.30;;
71104;SDS011;58760;48.716;8.962;2023-03-16T02:42:26;9.52;;;4.95;;
71104;SDS011;58760;48.716;8.962;2023-03-16T02:44:58;10.88;;;6.20;;
71104;SDS011;58760;48.716;8.962;2023-03-16T02:47:35;13.52;;;6.38;;
71104;SDS011;58760;48.716;8.962;2023-03-16T02:50:04;11.23;;;6.53;;
71104;SDS011;58760;48.716;8.962;2023-03-16T02:52:34;11.75;;;6.30;;
71104;SDS011;58760;48.716;8.962;2023-03-16T02:55:01;15.88;;;7.03;;
71104;SDS011;58760;48.716;8.962;2023-03-16T02:57:27;11.52;;;6.78;;
71104;SDS011;58760;48.716;8.962;2023-03-16T02:59:52;12.32;;;7.32;;
71104;SDS011;58760;48.716;8.962;2023-03-16T03:02:18;12.20;;;6.45;;
71104;SDS011;58760;48.716;8.962;2023-03-16T03:04:43;11.40;;;6.88;;
71104;SDS011;58760;48.716;8.962;2023-03-16T03:07:12;13.23;;;7.25;;
71104;SDS011;58760;48.716;8.962;2023-03-16T03:09:38;12.95;;;7.03;;
71104;SDS011;58760;48.716;8.962;2023-03-16T03:12:07;14.07;;;7.78;;
71104;SDS011;58760;48.716;8.962;2023-03-16T03:14:36;12.68;;;7.13;;
71104;SDS011;58760;48.716;8.962;2023-03-16T03:17:08;16.83;;;7.80;;
71104;SDS011;58760;48.716;8.962;2023-03-16T03:19:34;14.40;;;7.28;;
71104;SDS011;58760;48.716;8.962;2023-03-16T03:22:01;12.80;;;7.05;;
71104;SDS011;58760;48.716;8.962;2023-03-16T03:24:33;14.43;;;7.43;;
71104;SDS011;58760;48.716;8.962;2023-03-16T03:26:59;12.30;;;6.95;;
71104;SDS011;58760;48.716;8.962;2023-03-16T03:29:25;14.00;;;7.10;;
71104;SDS011;58760;48.716;8.962;2023-03-16T03:31:59;12.63;;;6.68;;
71104;SDS011;58760;48.716;8.962;2023-03-16T03:34:31;12.10;;;6.57;;
71104;SDS011;58760;48.716;8.962;2023-03-16T03:36:57;13.43;;;7.45;;
71104;SDS011;58760;48.716;8.962;2023-03-16T03:39:23;11.23;;;6.65;;
71104;SDS011;58760;48.716;8.962;2023-03-16T03:41:49;13.85;;;6.90;;
71104;SDS011;58760;48.716;8.962;2023-03-16T03:44:18;13.85;;;7.88;;
71104;SDS011;58760;48.716;8.962;2023-03-16T03:46:47;12.25;;;6.88;;
71104;SDS011;58760;48.716;8.962;2023-03-16T03:49:13;13.18;;;7.43;;
71104;SDS011;58760;48.716;8.962;2023-03-16T03:51:39;12.57;;;6.97;;
71104;SDS011;58760;48.716;8.962;2023-03-16T03:54:05;15.52;;;6.85;;
71104;SDS011;58760;48.716;8.962;2023-03-16T03:56:30;11.63;;;7.07;;
71104;SDS011;58760;48.716;8.962;2023-03-16T03:58:56;12.25;;;6.60;;
71104;SDS011;58760;48.716;8.962;2023-03-16T04:01:21;12.35;;;6.85;;
71104;SDS011;58760;48.716;8.962;2023-03-16T04:03:47;11.98;;;7.13;;
71104;SDS011;58760;48.716;8.962;2023-03-16T04:06:12;12.05;;;7.00;;
71104;SDS011;58760;48.716;8.962;2023-03-16T04:08:38;12.02;;;6.75;;
71104;SDS011;58760;48.716;8.962;2023-03-16T04:11:03;13.90;;;7.20;;
71104;SDS011;58760;48.716;8.962;2023-03-16T04:13:28;12.77;;;6.85;;
71104;SDS011;58760;48.716;8.962;2023-03-16T04:16:00;12.23;;;7.25;;
71104;SDS011;58760;48.716;8.962;2023-03-16T04:18:29;10.50;;;6.20;;
71104;SDS011;58760;48.716;8.962;2023-03-16T04:21:02;11.13;;;6.43;;
71104;SDS011;58760;48.716;8.962;2023-03-16T04:23:29;10.93;;;6.40;;
71104;SDS011;58760;48.716;8.962;2023-03-16T04:25:57;12.32;;;6.78;;
71104;SDS011;58760;48.716;8.962;2023-03-16T04:28:23;11.00;;;6.55;;
71104;SDS011;58760;48.716;8.962;2023-03-16T04:33:18;10.77;;;6.30;;
71104;SDS011;58760;48.716;8.962;2023-03-16T04:35:43;13.43;;;7.93;;
71104;SDS011;58760;48.716;8.962;2023-03-16T04:38:10;11.82;;;7.07;;
71104;SDS011;58760;48.716;8.962;2023-03-16T04:40:36;12.68;;;7.43;;
71104;SDS011;58760;48.716;8.962;2023-03-16T04:43:02;11.65;;;7.32;;
71104;SDS011;58760;48.716;8.962;2023-03-16T04:45:27;12.45;;;7.55;;
71104;SDS011;58760;48.716;8.962;2023-03-16T04:47:53;12.52;;;7.45;;
71104;SDS011;58760;48.716;8.962;2023-03-16T04:50:18;14.00;;;7.88;;
71104;SDS011;58760;48.716;8.962;2023-03-16T04:52:44;13.95;;;8.10;;
71104;SDS011;58760;48.716;8.962;2023-03-16T04:55:09;12.88;;;7.45;;
71104;SDS011;58760;48.716;8.962;2023-03-16T04:57:34;14.43;;;7.55;;
71104;SDS011;58760;48.716;8.962;2023-03-16T05:00:00;12.65;;;7.82;;
71104;SDS011;58760;48.716;8.962;2023-03-16T05:02:26;13.07;;;7.20;;
71104;SDS011;58760;48.716;8.962;2023-03-16T05:04:51;12.95;;;7.55;;
71104;SDS011;58760;48.716;8.962;2023-03-16T05:07:17;12.82;;;7.35;;
71104;SDS011;58760;48.716;8.962;2023-03-16T05:09:43;12.63;;;7.35;;
71104;SDS011;58760;48.716;8.962;2023-03-16T05:12:09;12.75;;;6.75;;
71104;SDS011;58760;48.716;8.962;2023-03-16T05:14:35;13.32;;;7.30;;
71104;SDS011;58760;48.716;8.962;2023-03-16T05:17:01;13.10;;;7.40;;
71104;SDS011;58760;48.716;8.962;2023-03-16T05:19:28;11.73;;;7.22;;
71104;SDS011;58760;48.716;8.962;2023-03-16T05:21:54;12.23;;;7.03;;
71104;SDS011;58760;48.716;8.962;2023-03-16T05:24:21;12.93;;;7.88;;
71104;SDS011;58760;48.716;8.962;2023-03-16T05:26:47;12.45;;;7.60;;
71104;SDS011;58760;48.716;8.962;2023-03-16T05:29:13;14.90;;;8.38;;
71104;SDS011;58760;48.716;8.962;2023-03-16T05:31:38;12.10;;;7.35;;
71104;SDS011;58760;48.716;8.962;2023-03-16T05:34:04;13.88;;;7.97;;
71104;SDS011;58760;48.716;8.962;2023-03-16T05:36:30;12.30;;;7.00;;
71104;SDS011;58760;48.716;8.962;2023-03-16T05:38:55;13.55;;;7.18;;
71104;SDS011;58760;48.716;8.962;2023-03-16T05:41:22;12.55;;;6.90;;
71104;SDS011;58760;48.716;8.962;2023-03-16T05:43:47;13.60;;;7.45;;
71104;SDS011;58760;48.716;8.962;2023-03-16T05:46:13;13.32;;;7.30;;
71104;SDS011;58760;48.716;8.962;2023-03-16T05:48:38;12.95;;;7.25;;
71104;SDS011;58760;48.716;8.962;2023-03-16T05:51:04;13.60;;;7.85;;
71104;SDS011;58760;48.716;8.962;2023-03-16T05:53:32;13.18;;;7.32;;
71104;SDS011;58760;48.716;8.962;2023-03-16T05:55:59;13.23;;;7.63;;
71104;SDS011;58760;48.716;8.962;2023-03-16T05:58:26;14.75;;;7.85;;
71104;SDS011;58760;48.716;8.962;2023-03-16T06:00:52;13.73;;;7.47;;
71104;SDS011;58760;48.716;8.962;2023-03-16T06:03:19;11.88;;;6.95;;
71104;SDS011;58760;48.716;8.962;2023-03-16T06:05:46;15.48;;;7.93;;
71104;SDS011;58760;48.716;8.962;2023-03-16T06:08:11;12.65;;;6.93;;
71104;SDS011;58760;48.716;8.962;2023-03-16T06:10:36;12.27;;;7.10;;
71104;SDS011;58760;48.716;8.962;2023-03-16T06:13:02;12.75;;;6.85;;
71104;SDS011;58760;48.716;8.962;2023-03-16T06:15:27;14.25;;;7.53;;
71104;SDS011;58760;48.716;8.962;2023-03-16T06:17:54;13.30;;;7.90;;
71104;SDS011;58760;48.716;8.962;2023-03-16T06:20:20;13.98;;;7.82;;
71104;SDS011;58760;48.716;8.962;2023-03-16T06:22:46;13.45;;;8.40;;
71104;SDS011;58760;48.716;8.962;2023-03-16T06:25:12;13.52;;;7.43;;
71104;SDS011;58760;48.716;8.962;2023-03-16T06:27:38;12.73;;;7.32;;
71104;SDS011;58760;48.716;8.962;2023-03-16T06:30:05;13.20;;;7.47;;
71104;SDS011;58760;48.716;8.962;2023-03-16T06:32:31;13.80;;;7.80;;
71104;SDS011;58760;48.716;8.962;2023-03-16T06:34:56;13.82;;;7.85;;
71104;SDS011;58760;48.716;8.962;2023-03-16T06:39:49;13.15;;;6.75;;
71104;SDS011;58760;48.716;8.962;2023-03-16T06:42:14;14.15;;;7.90;;
71104;SDS011;58760;48.716;8.962;2023-03-16T06:44:40;14.35;;;8.18;;
71104;SDS011;58760;48.716;8.962;2023-03-16T06:47:06;12.13;;;7.57;;
71104;SDS011;58760;48.716;8.962;2023-03-16T06:49:32;13.85;;;8.27;;
71104;SDS011;58760;48.716;8.962;2023-03-16T06:51:57;13.88;;;8.48;;
71104;SDS011;58760;48.716;8.962;2023-03-16T06:54:23;13.57;;;8.15;;
71104;SDS011;58760;48.716;8.962;2023-03-16T06:56:48;13.48;;;8.82;;
71104;SDS011;58760;48.716;8.962;2023-03-16T06:59:14;16.77;;;9.07;;
71104;SDS011;58760;48.716;8.962;2023-03-16T07:01:40;14.10;;;9.02;;
71104;SDS011;58760;48.716;8.962;2023-03-16T07:04:06;18.20;;;9.52;;
71104;SDS011;58760;48.716;8.962;2023-03-16T07:06:32;13.48;;;9.13;;
71104;SDS011;58760;48.716;8.962;2023-03-16T07:08:58;16.98;;;10.13;;
71104;SDS011;58760;48.716;8.962;2023-03-16T07:11:25;17.77;;;11.27;;
71104;SDS011;58760;48.716;8.962;2023-03-16T07:13:50;17.80;;;11.05;;
71104;SDS011;58760;48.716;8.962;2023-03-16T07:16:16;21.80;;;12.32;;
71104;SDS011;58760;48.716;8.962;2023-03-16T07:18:41;20.40;;;12.77;;
71104;SDS011;58760;48.716;8.962;2023-03-16T07:21:09;19.25;;;11.55;;
71104;SDS011;58760;48.716;8.962;2023-03-16T07:23:34;19.30;;;11.52;;
71104;SDS011;58760;48.716;8.962;2023-03-16T07:26:00;20.95;;;12.13;;
71104;SDS011;58760;48.716;8.962;2023-03-16T07:28:26;21.58;;;12.40;;
71104;SDS011;58760;48.716;8.962;2023-03-16T07:30:52;18.08;;;11.52;;
71104;SDS011;58760;48.716;8.962;2023-03-16T07:33:17;20.35;;;12.48;;
71104;SDS011;58760;48.716;8.962;2023-03-16T07:35:43;18.83;;;12.20;;
71104;SDS011;58760;48.716;8.962;2023-03-16T07:38:08;17.02;;;11.23;;
71104;SDS011;58760;48.716;8.962;2023-03-16T07:40:36;20.33;;;11.65;;
71104;SDS011;58760;48.716;8.962;2023-03-16T07:43:03;20.83;;;12.02;;
71104;SDS011;58760;48.716;8.962;2023-03-16T07:45:28;19.58;;;12.38;;
71104;SDS011;58760;48.716;8.962;2023-03-16T07:47:54;17.85;;;11.23;;
71104;SDS011;58760;48.716;8.962;2023-03-16T07:50:20;18.42;;;11.30;;
71104;SDS011;58760;48.716;8.962;2023-03-16T07:52:46;18.63;;;11.05;;
71104;SDS011;58760;48.716;8.962;2023-03-16T07:55:11;20.05;;;11.23;;
71104;SDS011;58760;48.716;8.962;2023-03-16T07:57:37;18.88;;;10.63;;
71104;SDS011;58760;48.716;8.962;2023-03-16T08:00:04;18.33;;;10.45;;
71104;SDS011;58760;48.716;8.962;2023-03-16T08:02:31;17.90;;;10.30;;
71104;SDS011;58760;48.716;8.962;2023-03-16T08:04:57;17.17;;;10.43;;
71104;SDS011;58760;48.716;8.962;2023-03-16T08:07:23;19.58;;;10.68;;
71104;SDS011;58760;48.716;8.962;2023-03-16T08:09:48;17.52;;;10.77;;
71104;SDS011;58760;48.716;8.962;2023-03-16T08:12:15;15.82;;;10.20;;
71104;SDS011;58760;48.716;8.962;2023-03-16T08:14:40;18.90;;;11.05;;
71104;SDS011;58760;48.716;8.962;2023-03-16T08:17:06;19.35;;;10.75;;
71104;SDS011;58760;48.716;8.962;2023-03-16T08:19:31;20.52;;;12.10;;
71104;SDS011;58760;48.716;8.962;2023-03-16T08:21:58;21.55;;;11.13;;
71104;SDS011;58760;48.716;8.962;2023-03-16T08:24:25;18.58;;;11.80;;
71104;SDS011;58760;48.716;8.962;2023-03-16T08:26:52;21.65;;;12.07;;
71104;SDS011;58760;48.716;8.962;2023-03-16T08:29:17;19.27;;;11.77;;
71104;SDS011;58760;48.716;8.962;2023-03-16T08:31:43;19.65;;;11.98;;
71104;SDS011;58760;48.716;8.962;2023-03-16T08:34:09;24.23;;;12.48;;
71104;SDS011;58760;48.716;8.962;2023-03-16T08:36:34;21.10;;;12.60;;
71104;SDS011;58760;48.716;8.962;2023-03-16T08:39:01;19.80;;;12.55;;
71104;SDS011;58760;48.716;8.962;2023-03-16T08:41:29;19.67;;;11.55;;
71104;SDS011;58760;48.716;8.962;2023-03-16T08:43:56;18.55;;;12.13;;
71104;SDS011;58760;48.716;8.962;2023-03-16T08:46:22;19.17;;;11.20;;
71104;SDS011;58760;48.716;8.962;2023-03-16T08:48:48;19.38;;;10.75;;
71104;SDS011;58760;48.716;8.962;2023-03-16T08:51:14;17.67;;;10.07;;
71104;SDS011;58760;48.716;8.962;2023-03-16T08:53:39;17.17;;;9.93;;
71104;SDS011;58760;48.716;8.962;2023-03-16T08:56:05;17.50;;;10.10;;
71104;SDS011;58760;48.716;8.962;2023-03-16T08:58:32;15.68;;;10.98;;
71104;SDS011;58760;48.716;8.962;2023-03-16T09:00:59;16.42;;;10.27;;
71104;SDS011;58760;48.716;8.962;2023-03-16T09:03:25;16.90;;;9.35;;
71104;SDS011;58760;48.716;8.962;2023-03-16T09:05:51;15.65;;;9.15;;
71104;SDS011;58760;48.716;8.962;2023-03-16T09:08:17;17.63;;;9.40;;
71104;SDS011;58760;48.716;8.962;2023-03-16T09:10:42;20.25;;;9.25;;
71104;SDS011;58760;48.716;8.962;2023-03-16T09:13:08;11.50;;;7.78;;
71104;SDS011;58760;48.716;8.962;2023-03-16T09:15:34;13.05;;;6.93;;
71104;SDS011;58760;48.716;8.962;2023-03-16T09:18:00;11.98;;;7.32;;
71104;SDS011;58760;48.716;8.962;2023-03-16T09:20:27;11.32;;;6.47;;
71104;SDS011;58760;48.716;8.962;2023-03-16T09:22:53;13.20;;;6.63;;
71104;SDS011;58760;48.716;8.962;2023-03-16T09:25:19;11.32;;;5.47;;
71104;SDS011;58760;48.716;8.962;2023-03-16T09:27:45;10.02;;;5.10;;
71104;SDS011;58760;48.716;8.962;2023-03-16T09:30:10;9.95;;;4.78;;
71104;SDS011;58760;48.716;8.962;2023-03-16T09:32:37;10.95;;;4.68;;
71104;SDS011;58760;48.716;8.962;2023-03-16T09:35:03;10.38;;;5.75;;
71104;SDS011;58760;48.716;8.962;2023-03-16T09:37:30;8.18;;;4.43;;
71104;SDS011;58760;48.716;8.962;2023-03-16T09:39:57;8.05;;;3.85;;
71104;SDS011;58760;48.716;8.962;2023-03-16T09:42:25;7.97;;;3.92;;
71104;SDS011;58760;48.716;8.962;2023-03-16T09:45:15;7.32;;;3.45;;
71104;SDS011;58760;48.716;8.962;2023-03-16T09:47:48;6.68;;;2.97;;
71104;SDS011;58760;48.716;8.962;2023-03-16T09:50:19;8.77;;;3.40;;
71104;SDS011;58760;48.716;8.962;2023-03-16T09:57:53;8.65;;;3.20;;
71104;SDS011;58760;48.716;8.962;2023-03-16T10:00:33;7.97;;;3.35;;
71104;SDS011;58760;48.716;8.962;2023-03-16T10:05:56;8.88;;;3.20;;
71104;SDS011;58760;48.716;8.962;2023-03-16T10:08:48;6.30;;;3.20;;
71104;SDS011;58760;48.716;8.962;2023-03-16T10:11:24;6.07;;;2.53;;
71104;SDS011;58760;48.716;8.962;2023-03-16T10:14:00;5.13;;;2.55;;
71104;SDS011;58760;48.716;8.962;2023-03-16T10:16:39;7.13;;;2.72;;
71104;SDS011;58760;48.716;8.962;2023-03-16T10:19:12;4.95;;;2.17;;
71104;SDS011;58760;48.716;8.962;2023-03-16T10:21:43;6.25;;;2.20;;
71104;SDS011;58760;48.716;8.962;2023-03-16T10:27:07;7.75;;;3.42;;
71104;SDS011;58760;48.716;8.962;2023-03-16T10:29:44;5.53;;;2.20;;
71104;SDS011;58760;48.716;8.962;2023-03-16T10:32:11;6.30;;;2.83;;
71104;SDS011;58760;48.716;8.962;2023-03-16T10:34:39;6.38;;;2.40;;
71104;SDS011;58760;48.716;8.962;2023-03-16T10:37:05;5.18;;;2.08;;
71104;SDS011;58760;48.716;8.962;2023-03-16T10:39:37;5.78;;;2.10;;
71104;SDS011;58760;48.716;8.962;2023-03-16T10:42:08;7.00;;;2.75;;
71104;SDS011;58760;48.716;8.962;2023-03-16T10:44:40;6.82;;;2.58;;
71104;SDS011;58760;48.716;8.962;2023-03-16T10:47:06;7.28;;;2.47;;
71104;SDS011;58760;48.716;8.962;2023-03-16T10:55:10;5.22;;;1.80;;
71104;SDS011;58760;48.716;8.962;2023-03-16T10:57:48;4.85;;;1.88;;
71104;SDS011;58760;48.716;8.962;2023-03-16T11:00:16;5.25;;;2.25;;
71104;SDS011;58760;48.716;8.962;2023-03-16T11:02:47;4.75;;;1.80;;
71104;SDS011;58760;48.716;8.962;2023-03-16T11:10:56;4.28;;;1.60;;
71104;SDS011;58760;48.716;8.962;2023-03-16T11:13:26;4.88;;;1.90;;
71104;SDS011;58760;48.716;8.962;2023-03-16T11:18:42;5.40;;;1.60;;
71104;SDS011;58760;48.716;8.962;2023-03-16T11:24:16;4.45;;;1.65;;
71104;SDS011;58760;48.716;8.962;2023-03-16T11:26:48;3.97;;;1.63;;
71104;SDS011;58760;48.716;8.962;2023-03-16T11:31:56;6.85;;;3.08;;
71104;SDS011;58760;48.716;8.962;2023-03-16T11:34:29;4.03;;;1.40;;
71104;SDS011;58760;48.716;8.962;2023-03-16T11:36:58;3.30;;;1.40;;
71104;SDS011;58760;48.716;8.962;2023-03-16T11:39:51;4.68;;;1.80;;
71104;SDS011;58760;48.716;8.962;2023-03-16T11:47:44;6.07;;;2.10;;
71104;SDS011;58760;48.716;8.962;2023-03-16T11:50:36;6.53;;;2.20;;
71104;SDS011;58760;48.716;8.962;2023-03-16T12:05:33;4.90;;;1.63;;
71104;SDS011;58760;48.716;8.962;2023-03-16T12:08:10;4.20;;;1.67;;
71104;SDS011;58760;48.716;8.962;2023-03-16T12:11:18;5.78;;;1.80;;
71104;SDS011;58760;48.716;8.962;2023-03-16T12:16:20;3.05;;;1.20;;
71104;SDS011;58760;48.716;8.962;2023-03-16T12:18:56;5.03;;;1.30;;
71104;SDS011;58760;48.716;8.962;2023-03-16T12:21:29;4.30;;;1.58;;
71104;SDS011;58760;48.716;8.962;2023-03-16T12:24:04;3.53;;;1.42;;
71104;SDS011;58760;48.716;8.962;2023-03-16T12:26:37;5.80;;;1.52;;
71104;SDS011;58760;48.716;8.962;2023-03-16T12:29:13;4.35;;;1.52;;
71104;SDS011;58760;48.716;8.962;2023-03-16T12:34:31;5.43;;;1.60;;
71104;SDS011;58760;48.716;8.962;2023-03-16T12:42:49;5.90;;;1.40;;
71104;SDS011;58760;48.716;8.962;2023-03-16T12:48:02;4.55;;;1.77;;
71104;SDS011;58760;48.716;8.962;2023-03-16T12:50:31;3.33;;;1.40;;
71104;SDS011;58760;48.716;8.962;2023-03-16T12:52:57;5.13;;;1.42;;
71104;SDS011;58760;48.716;8.962;2023-03-16T12:55:24;4.03;;;1.50;;
71104;SDS011;58760;48.716;8.962;2023-03-16T12:58:04;2.83;;;1.15;;
71104;SDS011;58760;48.716;8.962;2023-03-16T13:00:33;4.63;;;1.42;;
71104;SDS011;58760;48.716;8.962;2023-03-16T13:03:05;4.28;;;1.30;;
71104;SDS011;58760;48.716;8.962;2023-03-16T13:08:14;3.55;;;1.33;;
71104;SDS011;58760;48.716;8.962;2023-03-16T13:10:42;3.53;;;1.30;;
71104;SDS011;58760;48.716;8.962;2023-03-16T13:13:24;2.83;;;1.05;;
71104;SDS011;58760;48.716;8.962;2023-03-16T13:15:59;4.20;;;1.30;;
71104;SDS011;58760;48.716;8.962;2023-03-16T13:18:36;3.15;;;1.30;;
71104;SDS011;58760;48.716;8.962;2023-03-16T13:21:19;3.80;;;1.40;;
71104;SDS011;58760;48.716;8.962;2023-03-16T13:24:00;2.95;;;1.33;;
71104;SDS011;58760;48.716;8.962;2023-03-16T13:26:38;4.82;;;1.50;;
71104;SDS011;58760;48.716;8.962;2023-03-16T13:29:14;3.83;;;1.50;;
71104;SDS011;58760;48.716;8.962;2023-03-16T13:31:45;3.13;;;1.20;;
71104;SDS011;58760;48.716;8.962;2023-03-16T13:34:13;2.35;;;1.20;;
71104;SDS011;58760;48.716;8.962;2023-03-16T13:36:43;5.07;;;1.48;;
71104;SDS011;58760;48.716;8.962;2023-03-16T13:39:20;4.63;;;1.30;;
71104;SDS011;58760;48.716;8.962;2023-03-16T13:44:45;2.50;;;1.17;;
71104;SDS011;58760;48.716;8.962;2023-03-16T13:47:12;3.60;;;1.23;;
71104;SDS011;58760;48.716;8.962;2023-03-16T13:49:44;3.67;;;1.40;;
71104;SDS011;58760;48.716;8.962;2023-03-16T13:52:16;2.33;;;1.05;;
71104;SDS011;58760;48.716;8.962;2023-03-16T13:54:44;4.45;;;1.30;;
71104;SDS011;58760;48.716;8.962;2023-03-16T13:57:10;4.57;;;1.17;;
71104;SDS011;58760;48.716;8.962;2023-03-16T13:59:37;3.67;;;1.48;;
71104;SDS011;58760;48.716;8.962;2023-03-16T14:02:08;6.70;;;1.50;;
71104;SDS011;58760;48.716;8.962;2023-03-16T14:04:42;3.95;;;1.33;;
71104;SDS011;58760;48.716;8.962;2023-03-16T14:07:12;3.13;;;1.17;;
71104;SDS011;58760;48.716;8.962;2023-03-16T14:09:41;3.45;;;1.35;;
71104;SDS011;58760;48.716;8.962;2023-03-16T14:12:10;3.00;;;1.38;;
71104;SDS011;58760;48.716;8.962;2023-03-16T14:14:39;2.92;;;1.20;;
71104;SDS011;58760;48.716;8.962;2023-03-16T14:17:12;4.97;;;1.42;;
71104;SDS011;58760;48.716;8.962;2023-03-16T14:19:44;4.50;;;1.45;;
71104;SDS011;58760;48.716;8.962;2023-03-16T14:22:12;4.45;;;1.35;;
71104;SDS011;58760;48.716;8.962;2023-03-16T14:24:39;3.80;;;1.55;;
71104;SDS011;58760;48.716;8.962;2023-03-16T14:27:55;5.32;;;1.60;;
71104;SDS011;58760;48.716;8.962;2023-03-16T14:30:25;3.90;;;1.40;;
71104;SDS011;58760;48.716;8.962;2023-03-16T14:37:51;3.15;;;1.30;;
71104;SDS011;58760;48.716;8.962;2023-03-16T14:40:26;4.03;;;1.48;;
71104;SDS011;58760;48.716;8.962;2023-03-16T14:42:55;2.72;;;1.15;;
71104;SDS011;58760;48.716;8.962;2023-03-16T14:45:33;3.58;;;1.40;;
71104;SDS011;58760;48.716;8.962;2023-03-16T14:48:05;3.10;;;1.30;;
71104;SDS011;58760;48.716;8.962;2023-03-16T14:50:42;3.40;;;1.50;;
71104;SDS011;58760;48.716;8.962;2023-03-16T14:53:08;4.10;;;1.17;;
71104;SDS011;58760;48.716;8.962;2023-03-16T14:55:34;3.38;;;1.25;;
71104;SDS011;58760;48.716;8.962;2023-03-16T14:58:01;4.65;;;1.40;;
71104;SDS011;58760;48.716;8.962;2023-03-16T15:00:27;3.35;;;1.33;;
71104;SDS011;58760;48.716;8.962;2023-03-16T15:02:55;3.92;;;1.63;;
71104;SDS011;58760;48.716;8.962;2023-03-16T15:05:31;3.47;;;1.30;;
71104;SDS011;58760;48.716;8.962;2023-03-16T15:07:59;3.17;;;1.10;;
71104;SDS011;58760;48.716;8.962;2023-03-16T15:12:51;3.10;;;1.10;;
71104;SDS011;58760;48.716;8.962;2023-03-16T15:15:28;4.28;;;1.30;;
71104;SDS011;58760;48.716;8.962;2023-03-16T15:17:54;4.28;;;1.45;;
71104;SDS011;58760;48.716;8.962;2023-03-16T15:22:49;5.15;;;1.88;;
71104;SDS011;58760;48.716;8.962;2023-03-16T15:30:46;3.55;;;1.20;;
71104;SDS011;58760;48.716;8.962;2023-03-16T15:33:14;3.70;;;1.48;;
71104;SDS011;58760;48.716;8.962;2023-03-16T15:35:40;4.15;;;1.42;;
71104;SDS011;58760;48.716;8.962;2023-03-16T15:38:14;3.38;;;1.15;;
71104;SDS011;58760;48.716;8.962;2023-03-16T15:40:44;3.92;;;1.38;;
71104;SDS011;58760;48.716;8.962;2023-03-16T15:43:12;3.28;;;1.20;;
71104;SDS011;58760;48.716;8.962;2023-03-16T15:45:40;5.05;;;1.20;;
71104;SDS011;58760;48.716;8.962;2023-03-16T15:48:07;2.35;;;1.02;;
71104;SDS011;58760;48.716;8.962;2023-03-16T15:50:33;4.18;;;1.50;;
71104;SDS011;58760;48.716;8.962;2023-03-16T15:53:01;3.00;;;1.10;;
71104;SDS011;58760;48.716;8.962;2023-03-16T15:55:34;3.70;;;1.10;;
71104;SDS011;58760;48.716;8.962;2023-03-16T15:58:02;3.65;;;0.90;;
71104;SDS011;58760;48.716;8.962;2023-03-16T16:00:35;5.40;;;1.50;;
71104;SDS011;58760;48.716;8.962;2023-03-16T16:03:02;2.78;;;1.10;;
71104;SDS011;58760;48.716;8.962;2023-03-16T16:05:30;2.42;;;1.05;;
71104;SDS011;58760;48.716;8.962;2023-03-16T16:07:56;4.05;;;1.30;;
71104;SDS011;58760;48.716;8.962;2023-03-16T16:10:22;3.25;;;1.02;;
71104;SDS011;58760;48.716;8.962;2023-03-16T16:12:49;3.58;;;1.45;;
71104;SDS011;58760;48.716;8.962;2023-03-16T16:15:24;4.82;;;1.65;;
71104;SDS011;58760;48.716;8.962;2023-03-16T16:17:53;4.38;;;1.40;;
71104;SDS011;58760;48.716;8.962;2023-03-16T16:22:46;6.45;;;1.50;;